| time (UTC) | temp C | wind direction | speed KPH | gust KPH | rain 1hr cm | rain 24hr cm | rain mn cm | humidity % | barometer mb |
| 20260507110011 | 5 | 155 | 6.4 | 9.7 | 0.00 | 0.33 | 0.13 | 75 | 1016.4 |
| 20260507104503 | 5 | 187 | 4.8 | 9.7 | 0.00 | 0.33 | 0.13 | 79 | 1016.4 |
| 20260507103008 | 5 | 92 | 6.4 | 22.5 | 0.00 | 0.33 | 0.13 | 78 | 1016.4 |
| 20260507101508 | 5 | 212 | 8.0 | 14.5 | 0.00 | 0.33 | 0.13 | 77 | 1016.3 |
| 20260507100002 | 4 | 208 | 6.4 | 19.3 | 0.00 | 0.33 | 0.13 | 80 | 1016.2 |
| 20260507094501 | 4 | 215 | 3.2 | 11.3 | 0.03 | 0.33 | 0.13 | 81 | 1016.3 |
| 20260507093059 | 4 | 215 | 4.8 | 16.1 | 0.08 | 0.33 | 0.13 | 81 | 1016.2 |
| 20260507091604 | 4 | 167 | 8.0 | 14.5 | 0.10 | 0.33 | 0.13 | 83 | 1016.1 |
| 20260507090111 | 5 | 155 | 6.4 | 19.3 | 0.10 | 0.33 | 0.13 | 86 | 1015.8 |
| 20260507084553 | 5 | 221 | 6.4 | 19.3 | 0.10 | 0.30 | 0.10 | 85 | 1015.6 |
| 20260507083059 | 5 | 172 | 8.0 | 16.1 | 0.08 | 0.28 | 0.08 | 86 | 1015.8 |
| 20260507081555 | 5 | 141 | 14.5 | 24.1 | 0.03 | 0.23 | 0.03 | 86 | 1015.7 |
| 20260507080045 | 5 | 127 | 16.1 | 25.7 | 0.05 | 0.23 | 0.03 | 86 | 1015.6 |
| 20260507074544 | 5 | 149 | 16.1 | 27.4 | 0.05 | 0.20 | 0.00 | 86 | 1015.4 |
| 20260507073057 | 5 | 141 | 12.9 | 24.1 | 0.08 | 0.20 | 0.20 | 86 | 1015.4 |
| 20260507071543 | 5 | 155 | 12.9 | 22.5 | 0.13 | 0.20 | 0.20 | 87 | 1015.2 |
| 20260507070110 | 5 | 155 | 11.3 | 16.1 | 0.10 | 0.18 | 0.18 | 87 | 1015.1 |
| 20260507064546 | 5 | 139 | 6.4 | 16.1 | 0.08 | 0.15 | 0.15 | 87 | 1015.0 |
| 20260507063041 | 5 | 167 | 4.8 | 16.1 | 0.05 | 0.13 | 0.13 | 87 | 1015.1 |
| 20260507061539 | 5 | 143 | 8.0 | 20.9 | 0.00 | 0.08 | 0.08 | 86 | 1014.8 |
| 20260507060036 | 5 | 146 | 12.9 | 19.3 | 0.00 | 0.08 | 0.08 | 85 | 1014.5 |
| 20260507054535 | 6 | 132 | 11.3 | 16.1 | 0.00 | 0.08 | 0.08 | 85 | 1014.3 |
| 20260507053036 | 6 | 147 | 11.3 | 17.7 | 0.00 | 0.08 | 0.08 | 84 | 1014.2 |
| 20260507051533 | 6 | 134 | 11.3 | 16.1 | 0.00 | 0.08 | 0.08 | 84 | 1014.1 |
| 20260507050034 | 5 | 132 | 11.3 | 20.9 | 0.00 | 0.08 | 0.08 | 85 | 1014.0 |
| 20260507044542 | 5 | 132 | 9.7 | 16.1 | 0.03 | 0.08 | 0.08 | 86 | 1013.9 |
| 20260507043041 | 5 | 159 | 17.7 | 25.7 | 0.05 | 0.08 | 0.08 | 85 | 1013.7 |
| 20260507041535 | 6 | 155 | 19.3 | 30.6 | 0.05 | 0.08 | 0.08 | 85 | 1013.6 |
| 20260507040033 | 6 | 141 | 8.0 | 22.5 | 0.05 | 0.08 | 0.08 | 85 | 1013.9 |
| 20260507034533 | 6 | 180 | 9.7 | 17.7 | 0.05 | 0.08 | 0.08 | 85 | 1013.9 |
| 20260507033029 | 5 | 240 | 1.6 | 6.4 | 0.00 | 0.03 | 0.03 | 88 | 1013.6 |
| 20260507031526 | 6 | 250 | 1.6 | 8.0 | 0.00 | 0.03 | 0.03 | 84 | 1013.5 |
| 20260507030025 | 6 | 212 | 0.0 | 6.4 | 0.03 | 0.03 | 0.03 | 82 | 1013.2 |
| 20260507024528 | 6 | 285 | 0.0 | 4.8 | 0.03 | 0.03 | 0.03 | 86 | 1013.1 |
| 20260507023019 | 6 | 297 | 1.6 | 6.4 | 0.03 | 0.03 | 0.03 | 85 | 1013.1 |
| 20260507021519 | 7 | 230 | 0.0 | 9.7 | 0.03 | 0.03 | 0.03 | 83 | 1013.0 |
| 20260507020018 | 6 | 157 | 4.8 | 11.3 | 0.03 | 0.03 | 0.03 | 84 | 1013.0 |
| 20260507014517 | 5 | 236 | 0.0 | 8.0 | 0.00 | 0.00 | 0.00 | 89 | 1013.0 |
| 20260507013014 | 5 | 276 | 0.0 | 6.4 | 0.00 | 0.00 | 0.00 | 89 | 1013.1 |
| 20260507011514 | 5 | 259 | 0.0 | 6.4 | 0.00 | 0.00 | 0.00 | 89 | 1013.0 |
| 20260507010014 | 5 | 291 | 0.0 | 6.4 | 0.00 | 0.00 | 0.00 | 89 | 1013.1 |
| 20260507004512 | 5 | 294 | 0.0 | 8.0 | 0.00 | 0.00 | 0.00 | 88 | 1013.0 |
| 20260507003013 | 6 | 295 | 1.6 | 4.8 | 0.00 | 0.00 | 0.00 | 87 | 1013.0 |
| 20260507001515 | 5 | 277 | 1.6 | 8.0 | 0.00 | 0.00 | 0.00 | 88 | 1012.8 |
| 20260507000011 | 5 | 274 | 0.0 | 4.8 | 0.00 | 0.00 | 0.00 | 88 | 1012.8 |
| 20260506234511 | 5 | 279 | 1.6 | 8.0 | 0.00 | 0.00 | 0.00 | 87 | 1012.7 |
| 20260506233013 | 6 | 279 | 0.0 | 6.4 | 0.00 | 0.00 | 0.00 | 87 | 1012.7 |
| 20260506231513 | 6 | 253 | 1.6 | 6.4 | 0.00 | 0.00 | 0.00 | 87 | 1012.6 |
| 20260506230009 | 6 | 253 | 3.2 | 9.7 | 0.00 | 0.00 | 0.00 | 86 | 1012.5 |
| 20260506224509 | 6 | 302 | 4.8 | 8.0 | 0.00 | 0.00 | 0.00 | 85 | 1012.4 |
| 20260506223002 | 6 | 267 | 1.6 | 9.7 | 0.00 | 0.00 | 0.00 | 83 | 1012.3 |
| 20260506221500 | 7 | 359 | 3.2 | 16.1 | 0.00 | 0.00 | 0.00 | 81 | 1012.2 |
| 20260506220100 | 6 | 312 | 1.6 | 9.7 | 0.00 | 0.00 | 0.00 | 81 | 1012.2 |
| 20260506214559 | 7 | 284 | 1.6 | 9.7 | 0.00 | 0.00 | 0.00 | 77 | 1012.1 |
| 20260506213101 | 6 | 257 | 3.2 | 12.9 | 0.00 | 0.00 | 0.00 | 81 | 1011.9 |
| 20260506211559 | 6 | 257 | 4.8 | 16.1 | 0.00 | 0.00 | 0.00 | 78 | 1011.8 |
| 20260506210058 | 8 | 158 | 6.4 | 16.1 | 0.00 | 0.00 | 0.00 | 69 | 1011.8 |
| 20260506204559 | 7 | 281 | 4.8 | 16.1 | 0.00 | 0.00 | 0.00 | 75 | 1011.6 |
| 20260506203059 | 8 | 249 | 6.4 | 17.7 | 0.00 | 0.00 | 0.00 | 73 | 1011.4 |
| 20260506201617 | 8 | 252 | 4.8 | 9.7 | 0.00 | 0.00 | 0.00 | 71 | 1011.3 |
| 20260506200052 | 7 | 273 | 1.6 | 4.8 | 0.00 | 0.00 | 0.00 | 74 | 1011.2 |
| 20260506194554 | 7 | 267 | 0.0 | 4.8 | 0.00 | 0.00 | 0.00 | 77 | 1011.2 |
| 20260506193052 | 7 | 284 | 0.0 | 6.4 | 0.00 | 0.00 | 0.00 | 80 | 1011.1 |
| 20260506191547 | 6 | 274 | 0.0 | 3.2 | 0.00 | 0.00 | 0.00 | 81 | 1011.2 |
| 20260506190046 | 6 | 255 | 0.0 | 4.8 | 0.00 | 0.00 | 0.00 | 82 | 1011.1 |
| 20260506184550 | 6 | 291 | 0.0 | 4.8 | 0.00 | 0.00 | 0.00 | 84 | 1011.1 |
| 20260506183041 | 5 | 295 | 1.6 | 6.4 | 0.00 | 0.00 | 0.00 | 84 | 1011.0 |
| 20260506181540 | 5 | 352 | 3.2 | 6.4 | 0.00 | 0.00 | 0.00 | 85 | 1010.9 |
| 20260506180040 | 5 | 316 | 0.0 | 3.2 | 0.00 | 0.00 | 0.00 | 85 | 1010.8 |
| 20260506174539 | 5 | 308 | 0.0 | 4.8 | 0.00 | 0.00 | 0.00 | 85 | 1010.7 |
| 20260506173053 | 5 | 322 | 0.0 | 3.2 | 0.00 | 0.00 | 0.00 | 85 | 1010.7 |
| 20260506171550 | 5 | 316 | 1.6 | 4.8 | 0.00 | 0.00 | 0.00 | 85 | 1010.5 |
| 20260506170038 | 5 | 348 | 1.6 | 4.8 | 0.00 | 0.00 | 0.00 | 85 | 1010.5 |
| 20260506164536 | 5 | 356 | 1.6 | 4.8 | 0.00 | 0.00 | 0.00 | 84 | 1010.4 |
| 20260506163041 | 4 | 309 | 0.0 | 1.6 | 0.00 | 0.00 | 0.00 | 86 | 1010.2 |
| 20260506161533 | 5 | 334 | 0.0 | 3.2 | 0.00 | 0.00 | 0.00 | 83 | 1010.1 |
| 20260506160032 | 5 | 257 | 0.0 | 1.6 | 0.00 | 0.00 | 0.00 | 84 | 1010.1 |
| 20260506154536 | 5 | 277 | 0.0 | 4.8 | 0.00 | 0.00 | 0.00 | 82 | 1009.9 |
| 20260506153028 | 5 | 20 | 0.0 | 8.0 | 0.00 | 0.00 | 0.00 | 82 | 1009.8 |
| 20260506151527 | 4 | 17 | 1.6 | 8.0 | 0.00 | 0.00 | 0.00 | 82 | 1009.8 |
| 20260506150026 | 4 | 25 | 0.0 | 6.4 | 0.00 | 0.00 | 0.00 | 81 | 1009.8 |
| 20260506144524 | 5 | 356 | 1.6 | 4.8 | 0.00 | 0.00 | 0.00 | 82 | 1009.7 |
| 20260506143024 | 5 | 348 | 0.0 | 1.6 | 0.00 | 0.00 | 0.00 | 81 | 1009.7 |
| 20260506141522 | 5 | 125 | 0.0 | 3.2 | 0.00 | 0.00 | 0.00 | 81 | 1009.7 |
| 20260506140023 | 5 | 155 | 0.0 | 6.4 | 0.00 | 0.00 | 0.00 | 81 | 1009.6 |
| 20260506134520 | 5 | 153 | 4.8 | 11.3 | 0.00 | 0.00 | 0.00 | 80 | 1009.6 |
| 20260506133018 | 5 | 169 | 6.4 | 12.9 | 0.00 | 0.00 | 0.00 | 78 | 1009.5 |
| 20260506131519 | 5 | 174 | 8.0 | 11.3 | 0.00 | 0.00 | 0.00 | 78 | 1009.5 |
| 20260506130016 | 5 | 146 | 9.7 | 14.5 | 0.00 | 0.00 | 0.00 | 78 | 1009.4 |
| 20260506124514 | 5 | 145 | 4.8 | 11.3 | 0.00 | 0.00 | 0.00 | 78 | 1009.4 |
| 20260506123015 | 5 | 146 | 6.4 | 14.5 | 0.00 | 0.00 | 0.00 | 78 | 1009.3 |
| 20260506121514 | 5 | 195 | 3.2 | 9.7 | 0.00 | 0.00 | 0.00 | 77 | 1009.2 |
| 20260506120013 | 5 | 142 | 6.4 | 17.7 | 0.00 | 0.00 | 0.00 | 77 | 1009.1 |
| 20260506114513 | 5 | 143 | 6.4 | 12.9 | 0.00 | 0.00 | 0.00 | 77 | 1009.1 |
| 20260506113004 | 5 | 184 | 8.0 | 20.9 | 0.00 | 0.00 | 0.00 | 75 | 1009.0 |
| 20260506111501 | 5 | 148 | 4.8 | 12.9 | 0.00 | 0.00 | 0.00 | 74 | 1009.0 |
| 20260506110100 | 5 | 200 | 4.8 | 16.1 | 0.00 | 0.00 | 0.00 | 74 | 1008.9 |